Time;durP1;ratioP1;P1;durP2;ratioP2;P2;SDS_P1;SDS_P2;PMS_P1;PMS_P2;Temp;Humidity;BMP_temperature;BMP_pressure;BME280_temperature;BME280_humidity;BME280_pressure;Samples;Min_cycle;Max_cycle;Signal;HPM_P1;HPM_P2
2023/06/06 05:22:12;;;;;;;11.77;5.97;;;;;;;;;;6182907;23;20169;-84
2023/06/06 05:24:44;;;;;;;11.32;5.38;;;;;;;;;;6177662;23;20123;-82
2023/06/06 05:30:23;;;;;;;12.88;7.10;;;;;;;;;;6150243;23;20033;-84
2023/06/06 05:32:49;;;;;;;10.63;6.57;;;;;;;;;;6154214;23;20457;-81
2023/06/06 16:14:25;;;;;;;9.60;4.07;;;;;;;;;;6194925;23;20017;-86
2023/06/06 16:16:56;;;;;;;8.15;3.78;;;;;;;;;;6156286;23;20020;-86
2023/06/06 16:22:52;;;;;;;7.28;3.25;;;;;;;;;;6061740;23;20077;-82
2023/06/06 16:25:18;;;;;;;7.05;3.97;;;;;;;;;;6153538;23;20016;-81
2023/06/06 16:27:45;;;;;;;6.35;3.75;;;;;;;;;;6182365;23;20005;-82
2023/06/06 16:30:12;;;;;;;7.78;4.78;;;;;;;;;;6181945;23;20020;-83
2023/06/06 16:32:38;;;;;;;10.02;4.43;;;;;;;;;;6182744;23;20043;-83
2023/06/06 16:35:05;;;;;;;6.88;4.18;;;;;;;;;;6157170;23;20013;-83
2023/06/06 16:37:33;;;;;;;8.57;4.05;;;;;;;;;;6158057;23;20011;-83
2023/06/06 16:40:20;;;;;;;10.05;4.78;;;;;;;;;;6185360;23;20460;-84
2023/06/06 16:45:15;;;;;;;7.05;3.83;;;;;;;;;;6184651;23;20166;-82
2023/06/06 16:47:45;;;;;;;10.45;4.00;;;;;;;;;;6185005;23;20008;-83
2023/06/06 16:50:11;;;;;;;8.50;3.53;;;;;;;;;;6185579;23;19997;-83
2023/06/06 17:21:27;;;;;;;8.93;3.55;;;;;;;;;;6163873;22;20056;-84
2023/06/06 18:04:41;;;;;;;7.20;3.35;;;;;;;;;;6202146;23;20102;-85
2023/06/06 18:07:07;;;;;;;7.20;3.80;;;;;;;;;;6154436;23;20084;-84
2023/06/06 18:09:33;;;;;;;7.38;3.83;;;;;;;;;;6155745;23;20005;-86
2023/06/06 18:12:00;;;;;;;7.75;3.50;;;;;;;;;;6125345;23;20005;-82
2023/06/06 18:17:40;;;;;;;;;;;;;;;;;;;;;
2023/06/06 18:20:12;;;;;;;8.35;4.03;;;;;;;;;;6123388;23;20016;-85
2023/06/06 18:22:38;;;;;;;5.87;3.70;;;;;;;;;;6158488;23;20005;-84
2023/06/06 18:25:04;;;;;;;8.68;3.60;;;;;;;;;;6185138;23;20099;-83
2023/06/06 18:27:31;;;;;;;10.10;3.70;;;;;;;;;;6182262;23;20044;-83
2023/06/06 18:29:57;;;;;;;7.57;3.65;;;;;;;;;;6181519;23;20524;-83
2023/06/06 18:32:23;;;;;;;7.55;3.70;;;;;;;;;;6156497;23;20364;-82
2023/06/06 18:34:50;;;;;;;7.90;3.53;;;;;;;;;;6184794;23;20009;-83
2023/06/06 18:37:16;;;;;;;5.00;3.13;;;;;;;;;;6181691;23;20028;-82
2023/06/06 18:39:43;;;;;;;6.15;3.50;;;;;;;;;;6156469;23;20028;-85
2023/06/06 18:42:09;;;;;;;7.38;3.72;;;;;;;;;;6156391;23;20051;-87
2023/06/06 18:44:35;;;;;;;7.57;4.25;;;;;;;;;;6154239;23;20747;-85
2023/06/06 18:47:01;;;;;;;6.25;3.38;;;;;;;;;;6155463;23;20009;-87
2023/06/06 18:49:27;;;;;;;9.88;3.30;;;;;;;;;;6155585;23;20020;-87
2023/06/06 18:51:54;;;;;;;8.48;3.67;;;;;;;;;;6154596;23;20020;-86
2023/06/06 18:54:20;;;;;;;7.03;4.45;;;;;;;;;;6154736;23;20013;-85
2023/06/06 18:56:46;;;;;;;7.10;4.25;;;;;;;;;;6155768;23;20100;-88
2023/06/06 18:59:12;;;;;;;11.27;4.03;;;;;;;;;;6158553;23;20013;-83
2023/06/06 19:01:38;;;;;;;7.97;4.30;;;;;;;;;;6185045;23;20032;-84
2023/06/06 19:04:05;;;;;;;6.60;3.92;;;;;;;;;;6183781;23;20780;-82
2023/06/06 19:06:31;;;;;;;10.00;4.05;;;;;;;;;;6183173;23;20009;-86
2023/06/06 19:08:57;;;;;;;6.80;3.20;;;;;;;;;;6156964;23;20103;-86
2023/06/06 19:20:51;;;;;;;8.48;3.70;;;;;;;;;;5978431;24;20471;-87
2023/06/06 19:25:46;;;;;;;7.20;4.15;;;;;;;;;;6189743;23;20024;-87
2023/06/06 19:28:12;;;;;;;9.38;3.72;;;;;;;;;;6183093;23;20001;-87
2023/06/06 19:30:38;;;;;;;7.15;4.20;;;;;;;;;;6157620;23;20016;-83
2023/06/06 19:33:04;;;;;;;8.02;3.83;;;;;;;;;;6183497;23;20044;-84
2023/06/06 19:35:30;;;;;;;7.72;4.80;;;;;;;;;;6184495;23;20009;-83
2023/06/06 19:37:56;;;;;;;8.55;4.00;;;;;;;;;;6156503;23;20024;-83
2023/06/06 19:40:23;;;;;;;11.07;4.07;;;;;;;;;;6183681;23;20035;-83
2023/06/06 19:42:50;;;;;;;8.65;3.80;;;;;;;;;;6156965;23;20048;-83
2023/06/06 19:45:17;;;;;;;9.35;4.13;;;;;;;;;;6192854;23;20031;-83
2023/06/06 19:47:44;;;;;;;8.07;4.35;;;;;;;;;;6214002;23;20046;-85
2023/06/06 19:50:10;;;;;;;7.03;3.70;;;;;;;;;;6187101;23;20024;-90
2023/06/06 19:53:12;;;;;;;9.07;4.22;;;;;;;;;;6186772;23;20013;-89
2023/06/06 19:55:42;;;;;;;8.90;4.18;;;;;;;;;;6203022;23;20016;-83
2023/06/06 19:58:14;;;;;;;6.78;4.00;;;;;;;;;;6186665;23;20024;-85
2023/06/06 20:00:40;;;;;;;8.00;4.15;;;;;;;;;;6188257;23;20424;-84
2023/06/06 20:03:06;;;;;;;12.10;4.55;;;;;;;;;;6215905;23;20058;-83
2023/06/06 20:05:33;;;;;;;6.05;3.67;;;;;;;;;;6215728;23;20091;-88
